Time;durP1;ratioP1;P1;durP2;ratioP2;P2;SDS_P1;SDS_P2;PMS_P1;PMS_P2;Temp;Humidity;BMP_temperature;BMP_pressure;BME280_temperature;BME280_humidity;BME280_pressure;Samples;Min_cycle;Max_cycle;Signal;HPM_P1;HPM_P2
2023/01/30 00:00:51;;;;;;;10.77;7.53;;;21.40;54.50;;;;;;5093058;28;20039;-75
2023/01/30 00:03:17;;;;;;;12.27;8.10;;;21.40;54.40;;;;;;5092774;28;20510;-75
2023/01/30 00:05:43;;;;;;;10.57;6.90;;;21.50;54.40;;;;;;5091434;28;20031;-75
2023/01/30 00:08:09;;;;;;;15.15;8.85;;;21.40;54.30;;;;;;5092925;28;20077;-75
2023/01/30 00:10:35;;;;;;;14.80;7.90;;;21.40;54.20;;;;;;5092368;28;20064;-75
2023/01/30 00:13:01;;;;;;;14.38;9.20;;;21.40;54.20;;;;;;5092668;28;20558;-75
2023/01/30 00:15:27;;;;;;;13.00;7.65;;;21.40;54.10;;;;;;5092935;28;20032;-75
2023/01/30 00:17:53;;;;;;;11.18;7.53;;;21.40;54.00;;;;;;5092610;28;20170;-75
2023/01/30 00:20:19;;;;;;;13.18;7.75;;;21.30;54.10;;;;;;5074430;28;20491;-74
2023/01/30 00:22:45;;;;;;;9.80;6.82;;;21.20;54.20;;;;;;5092517;28;20093;-75
2023/01/30 00:25:10;;;;;;;11.05;7.35;;;21.20;54.10;;;;;;5092132;28;20392;-75
2023/01/30 00:27:37;;;;;;;12.95;7.80;;;21.20;54.20;;;;;;5092284;28;20476;-75
2023/01/30 00:30:06;;;;;;;11.63;7.68;;;21.10;54.20;;;;;;5092696;28;20027;-75
2023/01/30 00:32:32;;;;;;;10.93;7.55;;;21.10;54.20;;;;;;5091228;28;20055;-75
2023/01/30 00:34:58;;;;;;;10.00;7.40;;;21.10;54.00;;;;;;5090943;28;20628;-75
2023/01/30 00:37:24;;;;;;;13.77;8.25;;;21.20;54.00;;;;;;5091071;28;20043;-75
2023/01/30 00:39:50;;;;;;;12.85;8.32;;;21.10;54.10;;;;;;5091552;28;20028;-74
2023/01/30 00:47:48;;;;;;;12.95;8.57;;;21.10;53.80;;;;;;5092046;28;20071;-75
2023/01/30 00:50:14;;;;;;;14.50;8.55;;;21.20;53.60;;;;;;5091963;28;20036;-75
2023/01/30 00:52:42;;;;;;;12.85;7.65;;;21.10;53.60;;;;;;5090611;28;20020;-75
2023/01/30 00:55:08;;;;;;;12.50;7.60;;;21.10;53.40;;;;;;5091961;28;20110;-75
2023/01/30 00:57:34;;;;;;;12.70;8.18;;;21.20;53.30;;;;;;5092187;28;20039;-75
2023/01/30 01:00:00;;;;;;;11.95;8.15;;;21.30;53.40;;;;;;5091803;28;20036;-75
2023/01/30 01:02:26;;;;;;;17.65;8.95;;;21.10;53.30;;;;;;5091803;28;20035;-75
2023/01/30 01:04:52;;;;;;;16.42;9.32;;;21.10;53.20;;;;;;5091461;28;20058;-75
2023/01/30 01:07:18;;;;;;;14.55;9.07;;;21.10;53.10;;;;;;5091811;28;20118;-75
2023/01/30 01:09:44;;;;;;;13.30;8.35;;;21.00;53.00;;;;;;5090404;28;20036;-75
2023/01/30 01:12:10;;;;;;;15.02;9.30;;;21.10;53.00;;;;;;5091653;28;20454;-75
2023/01/30 01:14:36;;;;;;;16.50;7.82;;;21.00;52.90;;;;;;5090355;28;20028;-75
2023/01/30 01:17:02;;;;;;;12.52;7.35;;;21.00;52.80;;;;;;5090268;28;20036;-75
2023/01/30 01:19:28;;;;;;;12.20;8.15;;;20.90;52.90;;;;;;5090360;28;20028;-75
2023/01/30 01:21:54;;;;;;;13.48;8.68;;;21.00;52.70;;;;;;5073529;28;20067;-75
2023/01/30 01:24:20;;;;;;;12.30;7.47;;;21.10;52.70;;;;;;5090547;28;20036;-75
2023/01/30 01:26:46;;;;;;;13.65;8.23;;;21.10;52.70;;;;;;5091398;28;20032;-75
2023/01/30 01:29:14;;;;;;;14.07;8.77;;;21.00;53.10;;;;;;5091684;28;20062;-75
2023/01/30 01:31:42;;;;;;;13.52;8.75;;;21.00;53.20;;;;;;5088924;28;20044;-75
2023/01/30 01:34:09;;;;;;;11.45;8.45;;;21.10;53.40;;;;;;5091169;28;20127;-75
2023/01/30 01:36:34;;;;;;;12.20;8.23;;;21.10;53.20;;;;;;5090391;28;20035;-75
2023/01/30 01:39:02;;;;;;;11.30;7.95;;;21.10;53.20;;;;;;5091419;28;20024;-75
2023/01/30 01:41:28;;;;;;;11.13;8.05;;;21.20;53.30;;;;;;5091261;28;20373;-75
2023/01/30 01:44:05;;;;;;;12.52;9.00;;;21.10;53.10;;;;;;5091335;28;20044;-75
2023/01/30 01:46:41;;;;;;;15.40;8.73;;;21.10;53.10;;;;;;5091147;28;20086;-75
2023/01/30 01:49:35;;;;;;;14.68;7.85;;;21.00;53.00;;;;;;5090152;28;20043;-75
2023/01/30 01:52:09;;;;;;;15.50;8.82;;;21.00;53.00;;;;;;5028346;28;20053;-75
2023/01/30 01:54:46;;;;;;;13.25;8.20;;;21.00;53.00;;;;;;5011941;28;20482;-76
2023/01/30 01:57:24;;;;;;;16.10;9.05;;;20.90;52.90;;;;;;5011783;28;20049;-76
2023/01/30 01:59:56;;;;;;;16.25;8.70;;;20.90;53.00;;;;;;5011973;28;20038;-75
2023/01/30 02:02:22;;;;;;;14.48;8.32;;;20.80;52.90;;;;;;5028325;28;20173;-75
2023/01/30 02:05:01;;;;;;;15.43;8.80;;;20.70;52.80;;;;;;5028392;28;20123;-75
2023/01/30 02:07:35;;;;;;;13.23;8.45;;;20.80;52.90;;;;;;5011727;28;20033;-75
2023/01/30 02:10:02;;;;;;;14.05;8.35;;;20.70;52.80;;;;;;5011771;28;20064;-75
2023/01/30 02:12:29;;;;;;;13.50;8.38;;;20.70;53.00;;;;;;5028413;28;20041;-76
2023/01/30 02:14:57;;;;;;;12.55;7.93;;;20.70;52.90;;;;;;5028427;28;20070;-75
2023/01/30 02:17:23;;;;;;;12.98;8.02;;;20.80;52.80;;;;;;5028010;28;20041;-75
2023/01/30 02:19:52;;;;;;;13.40;8.65;;;20.80;52.80;;;;;;5008244;28;20186;-75
2023/01/30 02:22:21;;;;;;;12.00;7.65;;;20.80;52.70;;;;;;5008301;28;20061;-75
2023/01/30 02:25:16;;;;;;;14.02;8.35;;;20.80;52.60;;;;;;5008525;28;20431;-75
2023/01/30 02:28:00;;;;;;;11.85;8.25;;;20.80;52.50;;;;;;4991907;28;20458;-75
2023/01/30 02:30:50;;;;;;;13.15;8.45;;;20.80;52.30;;;;;;5084831;28;20045;-75
2023/01/30 02:33:43;;;;;;;13.68;8.27;;;20.80;52.20;;;;;;5068127;28;20330;-76
2023/01/30 02:36:29;;;;;;;14.18;8.85;;;20.80;52.10;;;;;;5047895;28;20045;-76
2023/01/30 02:39:42;;;;;;;15.20;8.55;;;20.80;52.10;;;;;;4988690;28;20053;-75
2023/01/30 02:42:15;;;;;;;12.67;7.53;;;20.80;52.10;;;;;;4934239;29;20039;-75
2023/01/30 02:44:51;;;;;;;16.38;8.25;;;20.70;52.20;;;;;;4933857;29;20328;-75
2023/01/30 02:47:42;;;;;;;12.93;7.78;;;20.80;52.10;;;;;;4933191;29;20643;-75
2023/01/30 02:50:39;;;;;;;12.25;7.80;;;20.60;52.00;;;;;;4937992;29;20039;-76
2023/01/30 02:53:06;;;;;;;14.30;8.65;;;20.70;52.20;;;;;;4953303;29;20172;-75
2023/01/30 02:55:32;;;;;;;12.00;8.00;;;20.60;52.20;;;;;;4953388;29;20042;-75
2023/01/30 02:58:00;;;;;;;10.65;6.93;;;20.60;52.30;;;;;;4953418;29;20043;-75
2023/01/30 03:00:47;;;;;;;13.77;8.70;;;20.60;52.30;;;;;;4937322;29;20062;-76
2023/01/30 03:03:35;;;;;;;12.35;7.82;;;20.50;52.20;;;;;;4938020;29;20099;-76
2023/01/30 03:06:04;;;;;;;13.63;7.88;;;20.70;52.30;;;;;;4953019;29;20134;-76
2023/01/30 03:09:00;;;;;;;14.32;7.78;;;20.70;52.30;;;;;;4953196;28;20123;-76
2023/01/30 03:11:37;;;;;;;14.10;8.55;;;20.60;52.20;;;;;;4953004;29;20536;-75
2023/01/30 03:14:36;;;;;;;14.13;8.15;;;20.60;52.00;;;;;;4969327;28;20039;-75
2023/01/30 03:17:04;;;;;;;13.27;8.20;;;20.70;52.00;;;;;;5062651;28;20032;-75
2023/01/30 03:19:31;;;;;;;12.13;7.72;;;20.70;51.90;;;;;;5073385;28;20473;-75
2023/01/30 03:21:59;;;;;;;12.32;8.23;;;20.50;51.70;;;;;;5072309;28;20040;-75
2023/01/30 03:24:25;;;;;;;13.68;8.55;;;20.60;51.70;;;;;;5073216;28;20044;-75
2023/01/30 03:27:02;;;;;;;13.68;7.78;;;20.60;51.70;;;;;;5072240;28;20029;-75
2023/01/30 03:29:29;;;;;;;12.25;7.95;;;20.50;51.80;;;;;;5072042;28;20032;-75
2023/01/30 03:31:55;;;;;;;12.20;7.50;;;20.50;51.90;;;;;;5072046;28;20409;-76
2023/01/30 03:34:20;;;;;;;13.80;7.38;;;20.50;52.00;;;;;;5072069;28;20043;-76
2023/01/30 03:36:47;;;;;;;13.40;7.93;;;20.40;52.00;;;;;;5085090;28;20036;-75
2023/01/30 03:39:14;;;;;;;13.00;8.30;;;20.40;51.90;;;;;;5070502;28;20051;-75
2023/01/30 03:41:41;;;;;;;11.88;7.93;;;20.40;51.90;;;;;;5053494;28;20052;-75
2023/01/30 03:44:07;;;;;;;13.82;7.72;;;20.30;51.90;;;;;;5053884;28;20052;-76
2023/01/30 03:46:33;;;;;;;14.00;8.15;;;20.40;51.90;;;;;;5070567;28;20044;-75
2023/01/30 03:48:59;;;;;;;13.35;8.32;;;20.30;51.90;;;;;;5053720;28;20127;-75
2023/01/30 03:51:25;;;;;;;12.55;8.20;;;20.40;51.70;;;;;;5052976;28;20037;-75
2023/01/30 03:53:51;;;;;;;12.52;7.72;;;20.50;51.60;;;;;;5052819;28;20037;-75
2023/01/30 03:56:17;;;;;;;13.20;8.80;;;20.60;51.50;;;;;;5069947;28;20055;-75
2023/01/30 03:58:43;;;;;;;12.50;8.30;;;20.50;51.50;;;;;;5052726;28;20579;-75
2023/01/30 04:01:16;;;;;;;16.63;8.83;;;20.60;51.40;;;;;;5037638;28;20271;-75
2023/01/30 04:03:42;;;;;;;12.85;8.73;;;20.50;51.30;;;;;;5053245;28;20036;-75
2023/01/30 04:06:10;;;;;;;12.63;7.93;;;20.50;51.30;;;;;;5053244;28;20037;-75
2023/01/30 04:08:36;;;;;;;16.05;8.60;;;20.50;51.40;;;;;;5052876;28;20085;-75
2023/01/30 04:11:03;;;;;;;11.98;7.72;;;20.60;51.30;;;;;;5084801;28;20745;-75
2023/01/30 04:13:29;;;;;;;14.15;8.48;;;20.50;51.30;;;;;;5091391;28;20035;-75
2023/01/30 04:16:28;;;;;;;14.55;8.35;;;20.40;51.20;;;;;;5074480;28;20376;-75
2023/01/30 04:19:13;;;;;;;12.18;7.55;;;20.40;51.50;;;;;;5049755;28;20076;-75
2023/01/30 04:21:40;;;;;;;13.57;8.25;;;20.30;51.50;;;;;;5033067;28;20048;-75
2023/01/30 04:24:06;;;;;;;12.48;8.45;;;20.30;51.40;;;;;;5049659;28;20029;-75
2023/01/30 04:26:32;;;;;;;14.15;8.95;;;20.30;51.40;;;;;;5033313;28;20040;-75
2023/01/30 04:28:58;;;;;;;14.98;8.45;;;20.30;51.50;;;;;;5009451;28;20038;-75
2023/01/30 04:31:26;;;;;;;13.75;8.10;;;20.30;51.60;;;;;;4993648;28;20410;-75
2023/01/30 04:34:00;;;;;;;10.70;6.95;;;20.30;51.70;;;;;;4962396;28;20050;-75
2023/01/30 04:36:28;;;;;;;11.88;8.35;;;20.20;51.50;;;;;;4993564;28;20073;-75
2023/01/30 04:38:56;;;;;;;11.52;7.50;;;20.30;51.60;;;;;;4977204;28;20134;-74
2023/01/30 04:41:23;;;;;;;13.68;7.65;;;20.30;51.70;;;;;;4993341;28;20046;-74
2023/01/30 04:43:51;;;;;;;12.27;7.55;;;20.40;51.50;;;;;;4993266;28;20125;-75
2023/01/30 04:46:35;;;;;;;13.70;8.35;;;20.60;51.00;;;;;;4993270;28;20092;-74
2023/01/30 04:49:01;;;;;;;11.35;7.10;;;20.90;50.30;;;;;;5009352;28;20044;-75
2023/01/30 04:51:27;;;;;;;12.82;7.75;;;21.10;50.30;;;;;;4992294;28;20129;-75
2023/01/30 04:53:53;;;;;;;15.48;7.70;;;21.20;50.20;;;;;;5020715;28;20036;-75
2023/01/30 04:56:19;;;;;;;14.40;8.32;;;21.40;50.20;;;;;;5032723;28;20044;-75
2023/01/30 04:58:47;;;;;;;13.32;8.90;;;21.40;50.10;;;;;;5032278;28;20032;-75
2023/01/30 05:01:35;;;;;;;16.80;9.25;;;21.50;50.30;;;;;;5032570;28;20265;-76
2023/01/30 05:04:02;;;;;;;13.18;8.32;;;21.30;51.10;;;;;;5049124;28;20045;-73
2023/01/30 05:06:29;;;;;;;11.75;7.20;;;21.10;52.10;;;;;;5060268;28;20042;-73
2023/01/30 05:08:55;;;;;;;10.40;6.47;;;21.10;52.80;;;;;;5071406;28;20060;-72
2023/01/30 05:11:23;;;;;;;13.48;7.22;;;21.20;51.20;;;;;;5070636;28;20056;-72
2023/01/30 05:13:50;;;;;;;14.20;10.75;;;21.40;49.10;;;;;;5071516;28;20040;-73
2023/01/30 05:16:17;;;;;;;12.65;9.70;;;21.50;46.40;;;;;;5071331;28;20029;-74
2023/01/30 05:18:44;;;;;;;11.43;9.15;;;21.50;48.70;;;;;;5071292;28;20039;-74
2023/01/30 05:21:15;;;;;;;14.77;10.48;;;21.70;52.10;;;;;;5071066;28;20428;-74
2023/01/30 05:23:41;;;;;;;12.30;9.20;;;21.80;53.00;;;;;;5071388;28;20033;-74
2023/01/30 05:26:08;;;;;;;13.32;9.27;;;22.10;53.50;;;;;;5071315;28;20028;-75
2023/01/30 05:28:34;;;;;;;11.50;8.55;;;22.10;54.40;;;;;;5070949;28;20078;-75
2023/01/30 05:31:06;;;;;;;12.00;8.82;;;22.10;60.10;;;;;;5070667;28;20740;-74
2023/01/30 05:33:32;;;;;;;12.52;9.43;;;22.40;60.40;;;;;;5070556;28;20029;-75
2023/01/30 05:35:58;;;;;;;12.02;9.25;;;22.40;62.00;;;;;;5070565;28;20474;-74
2023/01/30 05:38:25;;;;;;;12.90;9.32;;;22.50;62.60;;;;;;5070990;28;20631;-74
2023/01/30 05:41:03;;;;;;;13.57;10.85;;;22.50;64.90;;;;;;5070890;28;20032;-75
2023/01/30 05:43:30;;;;;;;13.27;10.18;;;22.60;62.20;;;;;;5085138;28;20045;-75
2023/01/30 05:45:58;;;;;;;13.68;10.77;;;22.70;59.50;;;;;;5091159;28;20043;-74
2023/01/30 05:48:24;;;;;;;17.08;13.77;;;22.70;63.00;;;;;;5090856;28;20043;-76
2023/01/30 05:50:51;;;;;;;24.75;17.02;;;22.70;59.60;;;;;;5090899;28;20032;-76
2023/01/30 05:53:21;;;;;;;22.00;14.55;;;22.80;58.50;;;;;;5091222;28;20039;-74
2023/01/30 05:55:55;;;;;;;24.17;18.70;;;22.80;55.20;;;;;;5088828;28;20585;-74
2023/01/30 05:58:21;;;;;;;30.05;21.25;;;22.60;54.50;;;;;;5089784;28;20032;-77
2023/01/30 06:00:47;;;;;;;27.13;19.25;;;22.50;54.60;;;;;;5090937;28;20040;-78
2023/01/30 06:03:12;;;;;;;17.90;11.25;;;22.20;56.80;;;;;;5088301;28;20055;-77
2023/01/30 06:05:38;;;;;;;15.35;8.77;;;22.00;57.10;;;;;;5088200;28;20134;-72
2023/01/30 06:08:05;;;;;;;11.13;6.80;;;22.10;57.40;;;;;;5097207;28;20052;-80
2023/01/30 06:10:31;;;;;;;16.42;9.70;;;22.20;56.20;;;;;;5100938;28;20062;-76
2023/01/30 06:12:56;;;;;;;12.52;8.48;;;22.20;55.00;;;;;;5108653;28;20055;-74
2023/01/30 06:15:22;;;;;;;13.35;7.78;;;21.90;55.80;;;;;;5091010;28;20032;-72
2023/01/30 06:17:48;;;;;;;12.20;7.18;;;22.00;55.90;;;;;;5088558;28;20099;-73
2023/01/30 06:20:14;;;;;;;13.20;8.32;;;22.00;55.20;;;;;;5088407;28;20107;-73
2023/01/30 06:22:40;;;;;;;14.82;7.47;;;22.20;54.70;;;;;;5097987;28;20047;-73
2023/01/30 06:25:08;;;;;;;23.30;12.77;;;22.10;54.00;;;;;;5092345;28;20094;-73
2023/01/30 06:27:34;;;;;;;21.55;12.98;;;22.20;53.40;;;;;;5092569;28;20039;-74
2023/01/30 06:30:01;;;;;;;19.55;12.05;;;22.20;52.70;;;;;;5091872;28;20051;-77
2023/01/30 06:32:27;;;;;;;17.75;10.07;;;22.20;52.20;;;;;;5092425;28;20040;-75
2023/01/30 06:34:53;;;;;;;13.38;8.30;;;22.20;51.70;;;;;;5093730;28;20134;-75
2023/01/30 06:37:19;;;;;;;15.18;9.65;;;22.30;51.30;;;;;;5094728;28;20036;-76
2023/01/30 06:39:45;;;;;;;22.40;14.20;;;22.40;51.40;;;;;;5094311;28;20158;-77
2023/01/30 06:42:11;;;;;;;22.67;14.25;;;22.30;50.50;;;;;;5071277;28;20143;-77
2023/01/30 06:44:37;;;;;;;35.50;19.77;;;22.10;50.50;;;;;;5071229;28;20045;-79
2023/01/30 06:47:03;;;;;;;40.55;24.08;;;21.90;51.20;;;;;;5071511;28;20048;-78
2023/01/30 06:49:29;;;;;;;45.97;24.23;;;21.80;52.20;;;;;;5071561;28;20040;-80
2023/01/30 06:51:55;;;;;;;65.53;27.60;;;21.50;53.20;;;;;;5054074;28;20044;-80
2023/01/30 06:54:21;;;;;;;57.28;29.15;;;21.40;53.80;;;;;;5071386;28;20102;-80
2023/01/30 06:56:47;;;;;;;35.40;18.77;;;21.30;54.30;;;;;;5070800;28;20053;-78
2023/01/30 06:59:13;;;;;;;33.42;18.30;;;21.20;54.60;;;;;;5054575;28;20130;-77
2023/01/30 07:01:39;;;;;;;28.90;16.20;;;21.10;54.80;;;;;;5070911;28;20123;-79
2023/01/30 07:04:05;;;;;;;22.58;14.30;;;21.10;54.90;;;;;;5071187;28;20072;-77
2023/01/30 07:06:31;;;;;;;20.42;13.55;;;20.90;55.00;;;;;;5070551;28;20036;-84
2023/01/30 07:08:57;;;;;;;21.35;13.73;;;20.90;55.30;;;;;;5070399;28;20042;-79
2023/01/30 07:11:24;;;;;;;22.30;14.77;;;20.90;58.60;;;;;;5071180;28;20115;-79
2023/01/30 07:13:50;;;;;;;24.85;14.18;;;21.30;61.30;;;;;;5057369;28;20457;-77
2023/01/30 07:16:16;;;;;;;24.48;13.88;;;21.80;65.10;;;;;;5053705;28;20112;-76
2023/01/30 07:18:42;;;;;;;22.45;14.07;;;22.00;65.10;;;;;;5053200;28;20069;-80
2023/01/30 07:21:08;;;;;;;23.77;14.07;;;21.90;60.80;;;;;;5053492;28;20037;-79
2023/01/30 07:23:35;;;;;;;20.42;12.98;;;21.70;57.60;;;;;;5052414;28;20492;-80
2023/01/30 07:26:05;;;;;;;20.52;12.10;;;21.50;57.20;;;;;;5054086;28;20041;-84
2023/01/30 07:28:31;;;;;;;16.70;11.55;;;21.70;57.40;;;;;;5053696;28;20067;-82
2023/01/30 07:31:01;;;;;;;16.77;11.07;;;21.10;57.00;;;;;;5053587;28;20037;-81
2023/01/30 07:33:27;;;;;;;14.95;11.18;;;21.00;57.40;;;;;;5050982;28;20052;-78
2023/01/30 07:35:54;;;;;;;14.80;10.18;;;21.00;58.20;;;;;;5052495;28;20037;-80
2023/01/30 07:38:20;;;;;;;15.75;10.10;;;21.00;58.20;;;;;;5053273;28;20033;-78
2023/01/30 07:40:46;;;;;;;16.42;9.90;;;21.00;58.80;;;;;;5052696;28;20400;-79
2023/01/30 07:43:13;;;;;;;16.77;11.15;;;21.00;58.00;;;;;;5053280;28;20048;-84
2023/01/30 07:45:47;;;;;;;19.00;9.48;;;21.00;58.20;;;;;;5053440;28;20032;-80
2023/01/30 07:48:18;;;;;;;16.42;9.73;;;21.00;59.00;;;;;;5052353;28;20458;-81
2023/01/30 07:50:45;;;;;;;12.68;8.20;;;21.10;58.10;;;;;;5053181;28;20032;-82
2023/01/30 07:53:13;;;;;;;15.63;8.05;;;21.40;57.40;;;;;;5053277;28;20543;-83
2023/01/30 07:55:40;;;;;;;18.80;10.43;;;21.60;56.70;;;;;;5053364;28;20481;-79
2023/01/30 07:58:06;;;;;;;15.15;10.98;;;21.60;54.30;;;;;;5053199;28;20527;-78
2023/01/30 08:00:33;;;;;;;17.05;10.95;;;21.50;57.60;;;;;;5052730;28;20033;-80
2023/01/30 08:02:59;;;;;;;18.15;11.73;;;21.30;60.10;;;;;;5052642;28;20041;-82
2023/01/30 08:05:25;;;;;;;18.92;13.35;;;21.20;60.00;;;;;;5052772;28;20040;-80
2023/01/30 08:07:54;;;;;;;17.52;12.80;;;21.60;62.30;;;;;;5052469;28;20052;-81
2023/01/30 08:10:20;;;;;;;20.23;12.55;;;21.80;59.10;;;;;;5081898;28;20488;-78
2023/01/30 08:12:48;;;;;;;16.63;11.00;;;22.00;55.90;;;;;;5093023;28;20043;-80
2023/01/30 08:15:14;;;;;;;28.73;13.63;;;21.80;56.10;;;;;;5111939;28;20036;-78
2023/01/30 08:17:40;;;;;;;16.88;10.40;;;21.70;56.80;;;;;;5113289;28;20034;-80
2023/01/30 08:20:07;;;;;;;18.27;11.05;;;21.50;56.80;;;;;;5113025;28;20024;-80
2023/01/30 08:22:33;;;;;;;16.55;11.15;;;21.40;56.90;;;;;;5113070;28;20046;-81
2023/01/30 08:24:59;;;;;;;19.77;12.07;;;21.30;57.20;;;;;;5113423;28;20023;-80
2023/01/30 08:27:25;;;;;;;20.70;11.57;;;21.20;57.70;;;;;;5113204;28;20035;-75
2023/01/30 08:29:51;;;;;;;20.27;12.32;;;21.10;58.10;;;;;;5112646;28;20043;-78
2023/01/30 08:32:17;;;;;;;19.13;11.40;;;21.00;58.30;;;;;;5113054;28;20032;-77
2023/01/30 08:34:43;;;;;;;17.52;11.20;;;20.90;59.00;;;;;;5112468;28;20031;-78
2023/01/30 08:37:09;;;;;;;19.52;11.32;;;20.90;60.20;;;;;;5112480;28;20059;-76
2023/01/30 08:39:35;;;;;;;19.55;11.23;;;20.90;60.20;;;;;;5112599;28;20120;-77
2023/01/30 08:42:01;;;;;;;17.65;10.85;;;20.90;60.00;;;;;;5112753;28;20039;-79
2023/01/30 08:44:27;;;;;;;16.38;10.85;;;20.80;59.90;;;;;;5112277;28;20031;-78
2023/01/30 08:46:53;;;;;;;16.27;11.02;;;20.80;59.60;;;;;;5112330;28;20484;-80
2023/01/30 08:49:19;;;;;;;17.48;10.32;;;20.90;59.80;;;;;;5112397;28;20458;-78
2023/01/30 08:51:45;;;;;;;17.15;10.18;;;20.90;59.80;;;;;;5112352;28;20024;-78
2023/01/30 08:54:11;;;;;;;22.38;12.15;;;20.90;58.90;;;;;;5111337;28;20093;-78
2023/01/30 08:56:37;;;;;;;15.02;9.73;;;20.90;62.00;;;;;;5076001;28;20054;-77
2023/01/30 08:59:04;;;;;;;13.52;9.45;;;21.50;63.80;;;;;;5110577;28;20404;-80
2023/01/30 09:01:30;;;;;;;16.25;10.52;;;22.10;65.00;;;;;;5091543;28;20028;-76
2023/01/30 09:03:56;;;;;;;15.75;9.48;;;22.00;58.50;;;;;;5091756;28;20036;-79
2023/01/30 09:06:23;;;;;;;17.80;10.20;;;21.80;58.20;;;;;;5090700;28;20435;-80
2023/01/30 09:08:49;;;;;;;14.45;10.00;;;21.80;58.10;;;;;;5091953;28;20468;-82
2023/01/30 09:11:15;;;;;;;14.73;9.48;;;21.50;58.10;;;;;;5091860;28;20064;-81
2023/01/30 09:13:42;;;;;;;13.65;9.02;;;21.50;58.50;;;;;;5097520;28;20032;-82
2023/01/30 09:16:10;;;;;;;13.50;8.77;;;21.50;58.70;;;;;;5112373;28;20038;-79
2023/01/30 09:18:40;;;;;;;10.88;7.15;;;21.50;59.30;;;;;;5110473;28;20040;-79
2023/01/30 09:21:07;;;;;;;13.80;8.20;;;21.50;59.40;;;;;;5110911;28;20040;-78
2023/01/30 09:23:33;;;;;;;12.95;8.18;;;21.40;59.20;;;;;;5112351;28;20028;-79
2023/01/30 09:26:01;;;;;;;14.48;8.52;;;21.40;58.40;;;;;;5112329;28;20035;-79
2023/01/30 09:28:27;;;;;;;11.40;7.80;;;21.40;58.20;;;;;;5112035;28;20027;-82
2023/01/30 09:30:56;;;;;;;11.68;7.55;;;21.40;59.00;;;;;;5092948;28;20068;-81
2023/01/30 09:33:23;;;;;;;12.60;7.45;;;21.60;62.20;;;;;;5091694;28;20696;-81
2023/01/30 09:35:49;;;;;;;18.23;10.07;;;22.00;63.50;;;;;;5092101;28;20059;-74
2023/01/30 09:38:16;;;;;;;13.95;8.80;;;22.50;63.30;;;;;;5091792;28;20028;-73
2023/01/30 09:41:05;;;;;;;15.13;8.40;;;22.70;66.70;;;;;;5091246;28;20406;-75
2023/01/30 09:43:55;;;;;;;13.80;8.80;;;22.90;68.30;;;;;;5028537;28;20062;-73
2023/01/30 09:46:33;;;;;;;12.80;8.18;;;23.00;63.90;;;;;;5028823;28;20039;-74
2023/01/30 09:49:13;;;;;;;10.23;6.25;;;23.00;61.20;;;;;;5028718;28;20532;-75
2023/01/30 09:52:05;;;;;;;13.23;9.52;;;22.60;61.40;;;;;;5012065;28;20037;-74
2023/01/30 09:54:39;;;;;;;11.93;8.85;;;22.60;58.80;;;;;;5028459;28;20444;-72
2023/01/30 09:57:19;;;;;;;12.60;8.63;;;22.60;59.10;;;;;;5029960;28;20129;-72
2023/01/30 09:59:50;;;;;;;10.10;8.80;;;22.90;57.40;;;;;;5032956;28;20044;-85
2023/01/30 10:02:47;;;;;;;14.27;9.57;;;23.00;55.60;;;;;;5043720;28;20049;-80
2023/01/30 10:05:13;;;;;;;11.38;7.80;;;23.30;55.10;;;;;;5036224;28;20045;-81
2023/01/30 10:08:03;;;;;;;13.00;8.23;;;23.50;54.00;;;;;;5052677;28;20102;-86
2023/01/30 10:10:48;;;;;;;13.45;8.98;;;23.60;54.20;;;;;;5035739;28;20060;-77
2023/01/30 10:13:22;;;;;;;13.38;8.77;;;23.60;54.60;;;;;;5033608;28;20033;-79
2023/01/30 10:16:15;;;;;;;13.45;8.48;;;23.60;54.20;;;;;;5032118;28;20057;-78
2023/01/30 10:18:51;;;;;;;13.98;8.73;;;23.50;54.80;;;;;;5032229;28;20083;-75
2023/01/30 10:22:09;;;;;;;13.98;9.02;;;23.40;54.80;;;;;;5066035;28;20044;-76
2023/01/30 10:25:05;;;;;;;12.45;8.27;;;23.40;55.00;;;;;;4973101;28;20054;-79
2023/01/30 10:27:34;;;;;;;11.18;8.90;;;23.20;55.60;;;;;;4975615;28;20045;-75
2023/01/30 10:30:04;;;;;;;15.00;9.43;;;23.10;55.80;;;;;;4992710;28;20499;-78
2023/01/30 10:32:40;;;;;;;13.52;9.68;;;23.40;54.40;;;;;;4992562;28;20181;-77
2023/01/30 10:35:15;;;;;;;15.48;9.18;;;23.40;54.50;;;;;;4992759;28;20206;-79
2023/01/30 10:37:47;;;;;;;14.10;9.60;;;23.50;54.10;;;;;;4992462;28;20045;-82
2023/01/30 10:40:25;;;;;;;11.52;7.55;;;23.70;55.70;;;;;;4992377;28;20145;-82
2023/01/30 10:43:26;;;;;;;13.15;8.60;;;23.80;54.20;;;;;;4992039;28;20121;-80
2023/01/30 10:45:58;;;;;;;14.63;9.68;;;24.00;57.20;;;;;;4992431;28;20030;-82
2023/01/30 10:48:50;;;;;;;11.25;8.38;;;24.30;59.80;;;;;;4992639;28;20042;-84
2023/01/30 10:51:45;;;;;;;12.77;9.35;;;24.60;62.40;;;;;;4992448;28;20042;-84
2023/01/30 10:54:23;;;;;;;13.07;9.52;;;24.70;57.20;;;;;;4991957;28;20049;-80
2023/01/30 10:56:55;;;;;;;15.63;10.32;;;24.60;55.50;;;;;;4976164;28;20093;-78
2023/01/30 10:59:28;;;;;;;13.13;10.13;;;24.50;58.30;;;;;;4992282;28;20034;-75
2023/01/30 11:01:54;;;;;;;13.80;9.18;;;24.60;59.20;;;;;;5059598;28;20170;-74
2023/01/30 11:04:30;;;;;;;15.05;10.57;;;24.80;63.40;;;;;;5073837;28;20060;-72
2023/01/30 11:06:58;;;;;;;14.00;10.13;;;24.90;61.60;;;;;;5073744;28;20029;-74
2023/01/30 11:09:36;;;;;;;12.30;9.40;;;25.10;60.00;;;;;;5072975;28;20478;-75
2023/01/30 11:12:02;;;;;;;14.50;10.93;;;24.90;54.50;;;;;;5073806;28;20369;-74
2023/01/30 11:14:27;;;;;;;18.83;10.05;;;24.80;53.90;;;;;;5073432;28;20024;-74
2023/01/30 11:16:56;;;;;;;16.08;9.95;;;24.80;53.30;;;;;;5073790;28;20499;-75
2023/01/30 11:19:29;;;;;;;15.95;10.38;;;24.50;53.60;;;;;;5073755;28;20035;-74
2023/01/30 11:22:01;;;;;;;15.27;11.57;;;24.60;53.40;;;;;;5073497;28;20090;-74
2023/01/30 11:24:41;;;;;;;20.00;9.98;;;24.50;54.20;;;;;;5073940;28;20033;-75
2023/01/30 11:27:26;;;;;;;16.08;10.15;;;24.50;54.10;;;;;;5090478;28;20032;-75
2023/01/30 11:30:03;;;;;;;15.20;10.55;;;24.30;54.30;;;;;;5096584;28;20032;-76
2023/01/30 11:32:29;;;;;;;14.90;10.30;;;24.20;55.20;;;;;;5114285;28;20036;-74
2023/01/30 11:35:26;;;;;;;17.10;10.50;;;24.20;57.40;;;;;;5105695;28;20050;-74
2023/01/30 11:37:52;;;;;;;17.42;10.63;;;24.50;56.80;;;;;;5011163;28;20125;-74
2023/01/30 11:40:24;;;;;;;18.85;11.35;;;24.70;57.00;;;;;;5010884;28;20100;-75
2023/01/30 11:42:57;;;;;;;16.30;10.85;;;25.00;62.20;;;;;;5014230;28;20053;-76
2023/01/30 11:45:25;;;;;;;19.08;11.68;;;25.30;62.10;;;;;;5030767;28;20121;-73
2023/01/30 11:47:56;;;;;;;16.35;11.70;;;25.40;62.70;;;;;;5030645;28;20458;-74
2023/01/30 11:50:30;;;;;;;15.70;11.25;;;25.50;60.30;;;;;;5030553;28;20141;-75
2023/01/30 11:53:01;;;;;;;16.75;10.90;;;25.30;56.40;;;;;;5030414;28;20041;-74
2023/01/30 11:55:32;;;;;;;20.15;11.43;;;24.90;55.90;;;;;;5030353;28;20061;-73
2023/01/30 11:57:59;;;;;;;15.55;11.27;;;24.70;56.30;;;;;;5030350;28;20068;-73
2023/01/30 12:00:39;;;;;;;18.13;11.73;;;24.50;56.70;;;;;;5028544;28;20080;-73
2023/01/30 12:03:11;;;;;;;18.92;10.45;;;24.30;57.20;;;;;;5030110;28;20041;-74
2023/01/30 12:05:41;;;;;;;16.30;10.60;;;24.30;57.40;;;;;;5013761;28;20184;-73
2023/01/30 12:08:34;;;;;;;19.35;11.63;;;24.20;57.40;;;;;;5030236;28;20295;-72
2023/01/30 12:11:02;;;;;;;14.98;10.10;;;24.10;57.70;;;;;;5030330;28;20041;-73
2023/01/30 12:13:37;;;;;;;16.17;9.77;;;24.10;58.10;;;;;;5032656;28;20112;-73
2023/01/30 12:16:22;;;;;;;16.98;10.40;;;24.10;58.20;;;;;;5113452;28;20066;-73
2023/01/30 12:19:06;;;;;;;13.32;8.95;;;24.10;58.20;;;;;;5093160;27;20397;-73
2023/01/30 12:22:00;;;;;;;15.02;9.98;;;24.10;58.00;;;;;;5092213;28;20028;-73
2023/01/30 12:24:41;;;;;;;16.52;9.55;;;24.20;57.60;;;;;;5093063;28;20039;-72
2023/01/30 12:27:26;;;;;;;16.67;9.73;;;24.30;57.50;;;;;;5092418;28;20051;-73
2023/01/30 12:30:23;;;;;;;15.20;9.32;;;24.10;58.00;;;;;;5092765;28;20060;-74
2023/01/30 12:32:52;;;;;;;17.67;11.13;;;24.00;58.00;;;;;;5029616;28;20046;-70
2023/01/30 12:35:26;;;;;;;17.20;9.80;;;23.90;57.80;;;;;;5043619;28;20048;-74
2023/01/30 12:38:02;;;;;;;15.95;10.48;;;23.80;57.80;;;;;;5049759;28;20052;-79
2023/01/30 12:40:52;;;;;;;18.83;9.00;;;23.80;58.10;;;;;;5049846;28;20040;-82
2023/01/30 12:43:33;;;;;;;12.27;8.57;;;23.80;58.20;;;;;;5049754;28;20107;-81
2023/01/30 12:46:14;;;;;;;14.93;9.23;;;23.60;58.80;;;;;;5049691;28;20041;-82
2023/01/30 12:49:12;;;;;;;17.23;10.98;;;23.60;59.90;;;;;;5049675;28;20513;-80
2023/01/30 12:51:56;;;;;;;17.00;9.98;;;23.40;61.70;;;;;;4981793;28;20046;-81
2023/01/30 12:54:44;;;;;;;15.98;9.20;;;23.50;61.20;;;;;;4970804;28;20038;-73
2023/01/30 12:57:27;;;;;;;16.55;9.18;;;23.60;60.40;;;;;;4970802;28;20103;-77
2023/01/30 13:00:15;;;;;;;12.02;7.82;;;23.60;59.60;;;;;;4970814;28;20113;-79